createdAt,value
2023-05-03T00:01:37.204Z,3.97
2023-05-03T00:04:04.002Z,2.95
2023-05-03T00:06:31.604Z,4.50
2023-05-03T00:08:58.172Z,4.03
2023-05-03T00:11:24.643Z,3.85
2023-05-03T00:13:51.215Z,5.03
2023-05-03T00:16:18.674Z,4.07
2023-05-03T00:18:46.043Z,5.50
2023-05-03T00:21:13.334Z,3.90
2023-05-03T00:23:39.887Z,5.93
2023-05-03T00:26:06.422Z,2.95
2023-05-03T00:28:32.921Z,4.28
2023-05-03T00:31:10.179Z,4.37
2023-05-03T00:33:37.578Z,3.75
2023-05-03T00:36:10.740Z,3.15
2023-05-03T00:38:37.783Z,3.00
2023-05-03T00:41:05.065Z,4.18
2023-05-03T00:43:35.421Z,2.93
2023-05-03T00:46:12.935Z,2.65
2023-05-03T00:48:42.950Z,3.38
2023-05-03T00:51:14.255Z,3.13
2023-05-03T00:53:42.166Z,3.10
2023-05-03T00:56:09.452Z,3.27
2023-05-03T00:58:40.123Z,2.17
2023-05-03T01:01:10.122Z,4.25
2023-05-03T01:03:39.703Z,3.47
2023-05-03T01:06:28.495Z,6.95
2023-05-03T01:09:20.026Z,5.17
2023-05-03T01:12:07.810Z,6.50
2023-05-03T01:14:51.944Z,5.22
2023-05-03T01:17:25.460Z,4.18
2023-05-03T01:19:57.837Z,4.45
2023-05-03T01:22:30.220Z,3.67
2023-05-03T01:25:07.534Z,4.60
2023-05-03T01:27:34.145Z,5.25
2023-05-03T01:30:01.081Z,4.53
2023-05-03T01:32:42.079Z,4.28
2023-05-03T01:35:15.904Z,3.40
2023-05-03T01:37:43.377Z,4.20
2023-05-03T01:40:16.785Z,6.80
2023-05-03T01:42:44.165Z,6.60
2023-05-03T01:45:12.103Z,7.60
2023-05-03T01:47:38.648Z,5.90
2023-05-03T01:50:05.575Z,9.40
2023-05-03T01:52:32.579Z,8.20
2023-05-03T01:55:00.146Z,9.48
2023-05-03T01:57:26.746Z,8.68
2023-05-03T01:59:53.391Z,6.70
2023-05-03T02:02:19.916Z,8.30
2023-05-03T02:04:46.735Z,9.48
2023-05-03T02:07:13.286Z,7.30
2023-05-03T02:09:39.878Z,11.88
2023-05-03T02:12:07.066Z,8.17
2023-05-03T02:14:33.621Z,8.52
2023-05-03T02:17:00.636Z,8.13
2023-05-03T02:19:27.395Z,8.18
2023-05-03T02:21:54.009Z,8.75
2023-05-03T02:24:20.539Z,8.43
2023-05-03T02:26:47.076Z,6.25
2023-05-03T02:29:13.573Z,7.43
2023-05-03T02:31:40.086Z,13.80
2023-05-03T02:34:06.663Z,8.65
2023-05-03T02:36:33.223Z,9.83
2023-05-03T02:38:59.740Z,7.78
2023-05-03T02:41:26.333Z,9.65
2023-05-03T02:43:52.840Z,7.10
2023-05-03T02:46:19.388Z,8.77
2023-05-03T02:48:45.971Z,7.10
2023-05-03T02:51:12.546Z,6.93
2023-05-03T02:53:39.088Z,9.70
2023-05-03T02:56:06.316Z,12.27
2023-05-03T02:58:32.783Z,10.68
2023-05-03T03:00:59.376Z,6.47
2023-05-03T03:03:26.230Z,7.13
2023-05-03T03:05:52.751Z,7.88
2023-05-03T03:08:19.431Z,8.75
2023-05-03T03:10:45.963Z,12.93
2023-05-03T03:13:12.486Z,8.70
2023-05-03T03:15:39.013Z,10.98
2023-05-03T03:18:05.885Z,8.50
2023-05-03T03:20:32.501Z,4.95
2023-05-03T03:22:59.171Z,7.78
2023-05-03T03:25:25.636Z,7.50
2023-05-03T03:27:52.086Z,9.10
2023-05-03T03:30:18.709Z,8.18
2023-05-03T03:32:45.282Z,9.93
2023-05-03T03:35:12.064Z,8.20
2023-05-03T03:37:40.030Z,9.10
2023-05-03T03:40:08.104Z,7.43
2023-05-03T03:42:34.662Z,6.13
2023-05-03T03:45:01.123Z,5.53
2023-05-03T03:47:28.044Z,6.55
2023-05-03T03:49:54.564Z,8.53
2023-05-03T03:52:21.205Z,4.15
2023-05-03T03:54:47.668Z,5.32
2023-05-03T03:57:14.157Z,9.55
2023-05-03T03:59:41.026Z,7.68
2023-05-03T04:02:07.668Z,8.20
2023-05-03T04:04:34.292Z,7.45
2023-05-03T04:07:00.929Z,7.80
2023-05-03T04:09:27.446Z,7.45
2023-05-03T04:11:54.292Z,8.40
2023-05-03T04:14:21.090Z,13.57
2023-05-03T04:16:47.590Z,8.60
2023-05-03T04:19:14.125Z,9.07
2023-05-03T04:21:40.569Z,9.50
2023-05-03T04:24:07.580Z,9.27
2023-05-03T04:26:34.543Z,9.20
2023-05-03T04:29:01.054Z,6.20
2023-05-03T04:31:28.331Z,12.10
2023-05-03T04:33:54.908Z,9.95
2023-05-03T04:36:22.735Z,9.70
2023-05-03T04:38:49.251Z,8.60
2023-05-03T04:41:16.209Z,12.32
2023-05-03T04:43:43.576Z,6.35
2023-05-03T04:46:10.435Z,9.57
2023-05-03T04:48:37.101Z,8.85
2023-05-03T04:51:03.975Z,7.17
2023-05-03T04:53:31.140Z,8.90
2023-05-03T04:55:57.658Z,7.03
2023-05-03T04:58:24.399Z,11.15
2023-05-03T05:00:51.094Z,7.93
2023-05-03T05:03:17.827Z,7.20
2023-05-03T05:05:44.351Z,7.38
2023-05-03T05:08:11.050Z,8.57
2023-05-03T05:10:38.937Z,8.13
2023-05-03T05:13:05.529Z,11.18
2023-05-03T05:15:32.007Z,8.80
2023-05-03T05:17:58.562Z,11.85
2023-05-03T05:20:25.685Z,8.55
2023-05-03T05:22:52.218Z,6.95
2023-05-03T05:25:18.848Z,6.40
2023-05-03T05:27:45.461Z,10.47
2023-05-03T05:30:12.480Z,8.27
2023-05-03T05:32:38.958Z,9.00
2023-05-03T05:35:06.070Z,8.48
2023-05-03T05:37:32.653Z,9.55
2023-05-03T05:39:59.251Z,8.30
2023-05-03T05:42:27.056Z,9.43
2023-05-03T05:44:53.598Z,9.05
2023-05-03T05:47:20.182Z,7.35
2023-05-03T05:49:46.831Z,6.15
2023-05-03T05:52:13.357Z,7.43
2023-05-03T05:54:39.889Z,10.82
2023-05-03T05:57:06.378Z,6.68
2023-05-03T05:59:32.869Z,7.53
2023-05-03T06:02:00.345Z,7.25
2023-05-03T06:04:27.275Z,6.87
2023-05-03T06:06:54.416Z,6.28
2023-05-03T06:09:24.576Z,6.22
2023-05-03T06:11:52.060Z,5.90
2023-05-03T06:14:20.636Z,6.82
2023-05-03T06:16:47.595Z,7.22
2023-05-03T06:19:14.214Z,6.75
2023-05-03T06:21:40.852Z,6.53
2023-05-03T06:24:07.465Z,6.50
2023-05-03T06:26:33.900Z,6.25
2023-05-03T06:29:00.940Z,5.72
2023-05-03T06:31:27.754Z,4.40
2023-05-03T06:33:54.436Z,5.93
2023-05-03T06:36:20.952Z,6.53
2023-05-03T06:38:47.459Z,5.35
2023-05-03T06:41:14.025Z,7.13
2023-05-03T06:43:40.550Z,7.57
2023-05-03T06:46:07.218Z,5.63
2023-05-03T06:48:33.900Z,4.70
2023-05-03T06:51:00.608Z,5.75
2023-05-03T06:53:27.414Z,6.45
2023-05-03T06:55:53.986Z,4.72
2023-05-03T06:58:20.403Z,5.03
2023-05-03T07:00:46.916Z,5.95
2023-05-03T07:03:13.551Z,3.75
2023-05-03T07:05:40.465Z,5.57
2023-05-03T07:08:07.385Z,5.88
2023-05-03T07:10:34.597Z,5.15
2023-05-03T07:13:01.314Z,5.57
2023-05-03T07:15:28.165Z,5.85
2023-05-03T07:17:54.744Z,3.65
2023-05-03T07:20:21.486Z,5.72
2023-05-03T07:22:48.284Z,6.75
2023-05-03T07:25:17.729Z,4.18
2023-05-03T07:27:44.618Z,4.07
2023-05-03T07:30:11.377Z,5.43
2023-05-03T07:32:38.011Z,3.10
2023-05-03T07:35:05.469Z,5.80
2023-05-03T07:37:31.977Z,3.35
2023-05-03T07:39:58.534Z,5.00
2023-05-03T07:42:25.080Z,7.45
2023-05-03T07:44:52.426Z,3.33
2023-05-03T07:47:19.300Z,3.97
2023-05-03T07:49:47.822Z,5.25
2023-05-03T07:52:14.325Z,3.80
2023-05-03T07:54:43.041Z,4.57
2023-05-03T07:57:09.585Z,4.25
2023-05-03T07:59:36.083Z,3.50
2023-05-03T08:02:03.190Z,5.13
2023-05-03T08:04:29.980Z,2.97
2023-05-03T08:06:56.750Z,5.43
2023-05-03T08:09:23.826Z,2.88
2023-05-03T08:11:50.790Z,4.65
2023-05-03T08:14:17.390Z,3.50
2023-05-03T08:16:43.878Z,4.15
2023-05-03T08:19:10.360Z,3.97
2023-05-03T08:21:36.893Z,5.10
2023-05-03T08:24:05.983Z,6.07
2023-05-03T08:26:33.360Z,5.40
2023-05-03T08:29:00.854Z,2.63
2023-05-03T08:31:27.657Z,4.57
2023-05-03T08:33:54.276Z,7.65
2023-05-03T08:36:21.293Z,4.93
2023-05-03T08:38:48.016Z,4.00
2023-05-03T08:41:31.137Z,3.90
2023-05-03T08:43:59.660Z,5.43
2023-05-03T08:46:28.631Z,4.35
2023-05-03T08:48:55.972Z,5.30
2023-05-03T08:51:24.171Z,5.22
2023-05-03T08:53:51.296Z,4.35
2023-05-03T08:56:30.335Z,5.50
2023-05-03T08:58:57.276Z,12.32
2023-05-03T09:01:23.818Z,3.05
2023-05-03T09:03:52.051Z,3.75
2023-05-03T09:06:26.005Z,5.30
2023-05-03T09:08:54.013Z,4.28
2023-05-03T09:11:25.240Z,4.63
2023-05-03T09:13:55.387Z,2.42
2023-05-03T09:16:28.806Z,3.72
2023-05-03T09:19:03.234Z,3.45
2023-05-03T09:21:31.692Z,4.72
2023-05-03T09:23:59.366Z,4.20
2023-05-03T09:26:35.974Z,4.40
2023-05-03T09:29:04.853Z,3.63
2023-05-03T09:31:33.900Z,3.85
2023-05-03T09:34:01.154Z,2.67
2023-05-03T09:36:28.125Z,4.38
2023-05-03T09:38:56.158Z,4.13
2023-05-03T09:41:30.355Z,5.72
2023-05-03T09:44:02.810Z,4.85
2023-05-03T09:46:33.600Z,3.92
2023-05-03T09:49:01.187Z,3.20
2023-05-03T09:51:28.437Z,5.32
2023-05-03T09:53:56.552Z,2.45
2023-05-03T09:56:26.540Z,3.92
2023-05-03T09:58:54.475Z,3.42
2023-05-03T10:01:24.493Z,3.65
2023-05-03T10:03:52.293Z,6.13
2023-05-03T10:06:23.221Z,4.32
2023-05-03T10:08:55.607Z,3.25
2023-05-03T10:11:26.932Z,6.43
2023-05-03T10:13:55.860Z,3.60
2023-05-03T10:16:31.571Z,2.38
2023-05-03T10:19:14.372Z,3.65
2023-05-03T10:22:09.694Z,3.45
2023-05-03T10:24:55.147Z,3.33
2023-05-03T10:27:21.652Z,6.65
2023-05-03T10:29:50.582Z,3.85
2023-05-03T10:32:36.564Z,4.07
2023-05-03T10:35:15.404Z,6.05
2023-05-03T10:37:43.809Z,3.83
2023-05-03T10:40:13.850Z,3.42
2023-05-03T10:42:50.178Z,4.80
2023-05-03T10:45:29.777Z,4.15
2023-05-03T10:48:11.945Z,2.65
2023-05-03T10:50:39.796Z,3.08
2023-05-03T10:53:06.617Z,3.80
2023-05-03T10:55:35.940Z,3.38
2023-05-03T10:58:03.960Z,3.50
2023-05-03T11:00:33.347Z,4.20
2023-05-03T11:03:21.612Z,3.60
2023-05-03T11:05:48.993Z,4.67
2023-05-03T11:08:23.345Z,3.15
2023-05-03T11:10:56.850Z,2.42
2023-05-03T11:13:23.418Z,4.03
2023-05-03T11:15:50.128Z,5.82
2023-05-03T11:18:17.079Z,4.97
2023-05-03T11:20:44.121Z,4.05
2023-05-03T11:23:12.389Z,3.55
2023-05-03T11:25:39.305Z,4.38
2023-05-03T11:28:06.024Z,4.57
2023-05-03T11:30:35.056Z,9.85
2023-05-03T11:33:02.142Z,2.90
2023-05-03T11:35:30.130Z,3.20
2023-05-03T11:37:56.956Z,6.53
2023-05-03T11:40:23.877Z,4.07
2023-05-03T11:42:54.696Z,4.75
2023-05-03T11:45:23.905Z,5.75
2023-05-03T11:47:51.135Z,5.45
2023-05-03T11:50:18.733Z,2.90
2023-05-03T11:52:45.832Z,4.20
2023-05-03T11:55:12.912Z,2.35
2023-05-03T11:57:39.422Z,3.40
2023-05-03T12:00:17.799Z,3.63
2023-05-03T12:02:47.987Z,3.00
2023-05-03T12:05:14.982Z,2.75
2023-05-03T12:07:42.599Z,2.88
2023-05-03T12:10:35.970Z,2.80
2023-05-03T12:13:05.220Z,3.22
2023-05-03T12:15:36.723Z,3.28
2023-05-03T12:18:09.868Z,3.55
2023-05-03T12:23:10.170Z,2.95
2023-05-03T12:25:39.638Z,3.55
2023-05-03T12:28:19.541Z,2.25
2023-05-03T12:30:47.486Z,3.40
2023-05-03T12:33:16.566Z,2.80
2023-05-03T12:35:47.294Z,4.22
2023-05-03T12:38:16.555Z,3.70
2023-05-03T12:40:48.180Z,3.38
2023-05-03T12:43:15.139Z,3.65
2023-05-03T12:45:46.575Z,4.80
2023-05-03T12:48:16.393Z,5.38
2023-05-03T12:50:45.586Z,2.92
2023-05-03T12:53:16.639Z,2.70
2023-05-03T12:55:44.956Z,3.38
2023-05-03T12:58:44.982Z,4.38
2023-05-03T13:03:33.429Z,3.30
2023-05-03T13:06:08.147Z,4.40
2023-05-03T13:11:06.363Z,3.53
2023-05-03T13:13:33.269Z,4.00
2023-05-03T13:16:00.167Z,3.22
2023-05-03T13:18:26.920Z,4.18
2023-05-03T13:20:53.832Z,3.58
2023-05-03T13:23:20.408Z,3.67
2023-05-03T13:25:47.171Z,2.95
2023-05-03T13:28:13.887Z,3.13
2023-05-03T13:30:40.420Z,2.63
2023-05-03T13:33:08.401Z,3.95
2023-05-03T13:35:35.296Z,1.88
2023-05-03T13:38:02.385Z,5.75
2023-05-03T13:40:29.311Z,3.60
2023-05-03T13:42:55.916Z,4.57
2023-05-03T13:45:22.421Z,3.10
2023-05-03T13:48:11.521Z,4.57
2023-05-03T13:50:35.558Z,3.80
2023-05-03T13:53:02.192Z,3.90
2023-05-03T13:55:28.818Z,3.22
2023-05-03T13:57:56.072Z,2.60
2023-05-03T14:00:23.039Z,4.90
2023-05-03T14:02:49.627Z,4.38
2023-05-03T14:05:16.502Z,5.97
2023-05-03T14:07:43.053Z,4.15
2023-05-03T14:10:10.773Z,2.22
2023-05-03T14:12:37.901Z,4.45
2023-05-03T14:15:08.033Z,2.40
2023-05-03T14:17:34.881Z,2.83
2023-05-03T14:20:01.555Z,2.33
2023-05-03T14:22:28.518Z,3.90
2023-05-03T14:24:55.084Z,2.20
2023-05-03T14:27:21.859Z,3.40
2023-05-03T14:29:48.719Z,1.92
2023-05-03T14:32:15.703Z,3.15
2023-05-03T14:34:42.830Z,4.28
2023-05-03T14:37:09.664Z,2.85
2023-05-03T14:39:36.838Z,2.38
2023-05-03T14:42:04.159Z,2.88
2023-05-03T14:44:30.895Z,2.05
2023-05-03T14:47:00.452Z,2.42
2023-05-03T14:49:27.124Z,3.13
2023-05-03T14:51:53.700Z,2.97
2023-05-03T14:54:20.337Z,2.80
2023-05-03T14:56:46.877Z,5.18
2023-05-03T14:59:13.461Z,2.83
2023-05-03T15:01:40.267Z,3.42
2023-05-03T15:04:10.617Z,5.55
2023-05-03T15:06:39.149Z,2.67
2023-05-03T15:09:06.229Z,3.35
2023-05-03T15:11:32.718Z,2.58
2023-05-03T15:13:59.759Z,3.13
2023-05-03T15:16:26.776Z,2.47
2023-05-03T15:18:53.462Z,3.35
2023-05-03T15:21:20.587Z,4.63
2023-05-03T15:23:49.518Z,2.58
2023-05-03T15:26:16.728Z,7.45
2023-05-03T15:28:43.596Z,2.45
2023-05-03T15:31:14.020Z,3.28
2023-05-03T15:33:43.151Z,2.85
2023-05-03T15:36:11.400Z,3.35
2023-05-03T15:38:38.561Z,4.35
2023-05-03T15:41:06.806Z,3.28
2023-05-03T15:43:33.653Z,2.13
2023-05-03T15:46:01.740Z,3.08
2023-05-03T15:48:28.448Z,3.63
2023-05-03T15:50:55.028Z,1.90
2023-05-03T15:53:21.601Z,2.78
2023-05-03T15:55:48.697Z,2.60
2023-05-03T15:58:15.636Z,1.67
2023-05-03T16:00:42.208Z,2.67
2023-05-03T16:03:08.905Z,5.93
2023-05-03T16:05:35.654Z,2.60
2023-05-03T16:08:02.104Z,3.42
2023-05-03T16:10:29.634Z,3.90
2023-05-03T16:12:56.285Z,5.05
2023-05-03T16:15:22.877Z,2.92
2023-05-03T16:17:49.774Z,3.28
2023-05-03T16:20:16.358Z,3.10
2023-05-03T16:22:42.956Z,3.50
2023-05-03T16:25:12.426Z,3.15
2023-05-03T16:27:40.373Z,2.38
2023-05-03T16:30:08.721Z,2.97
2023-05-03T16:32:35.832Z,2.38
2023-05-03T16:35:03.531Z,1.98
2023-05-03T16:37:36.095Z,2.70
2023-05-03T16:40:10.254Z,2.10
2023-05-03T16:42:41.086Z,3.60
2023-05-03T16:45:10.509Z,3.00
2023-05-03T16:47:37.931Z,2.45
2023-05-03T16:50:08.136Z,2.10
2023-05-03T16:52:39.402Z,2.85
2023-05-03T16:55:07.797Z,1.98
2023-05-03T16:57:34.464Z,2.63
2023-05-03T17:00:08.410Z,1.85
2023-05-03T17:02:38.977Z,2.67
2023-05-03T17:05:07.867Z,4.13
2023-05-03T17:07:35.599Z,2.90
2023-05-03T17:10:03.794Z,2.35
2023-05-03T17:12:31.226Z,2.35
2023-05-03T17:14:57.944Z,2.67
2023-05-03T17:17:24.516Z,6.55
2023-05-03T17:19:51.181Z,3.80
2023-05-03T17:22:17.765Z,4.43
2023-05-03T17:24:44.346Z,5.10
2023-05-03T17:27:11.236Z,5.20
2023-05-03T17:29:38.279Z,6.47
2023-05-03T17:32:05.048Z,4.95
2023-05-03T17:34:32.066Z,5.78
2023-05-03T17:36:59.371Z,4.43
2023-05-03T17:39:26.008Z,4.35
2023-05-03T17:41:52.489Z,4.50
2023-05-03T17:44:18.915Z,3.65
2023-05-03T17:46:46.044Z,3.58
2023-05-03T17:49:12.678Z,5.38
2023-05-03T17:51:39.251Z,2.50
2023-05-03T17:54:05.897Z,2.40
2023-05-03T17:56:32.346Z,3.08
2023-05-03T17:58:59.057Z,3.72
2023-05-03T18:01:25.745Z,3.05
2023-05-03T18:03:52.411Z,1.77
2023-05-03T18:06:19.013Z,3.13
2023-05-03T18:08:45.578Z,3.80
2023-05-03T18:11:12.155Z,5.22
2023-05-03T18:13:41.196Z,3.72
2023-05-03T18:16:10.767Z,2.20
2023-05-03T18:18:37.516Z,2.40
2023-05-03T18:21:04.822Z,3.72
2023-05-03T18:23:32.406Z,8.82
2023-05-03T18:25:59.844Z,3.33
2023-05-03T18:28:26.564Z,2.50
2023-05-03T18:30:55.575Z,2.35
2023-05-03T18:33:22.349Z,3.00
2023-05-03T18:35:50.274Z,5.68
2023-05-03T18:38:18.972Z,3.88
2023-05-03T18:40:46.796Z,3.60
2023-05-03T18:43:13.687Z,3.28
2023-05-03T18:45:40.724Z,6.85
2023-05-03T18:48:08.065Z,4.20
2023-05-03T18:50:35.872Z,4.82
2023-05-03T18:53:02.343Z,7.22
2023-05-03T18:55:28.815Z,3.22
2023-05-03T18:57:55.308Z,3.35
2023-05-03T19:00:22.002Z,3.97
2023-05-03T19:02:48.592Z,5.22
2023-05-03T19:05:15.437Z,5.67
2023-05-03T19:07:43.049Z,7.50
2023-05-03T19:10:10.588Z,14.25
2023-05-03T19:12:37.109Z,12.70
2023-05-03T19:15:03.840Z,10.60
2023-05-03T19:17:30.431Z,10.93
2023-05-03T19:19:57.108Z,11.55
2023-05-03T19:22:23.743Z,7.65
2023-05-03T19:24:50.320Z,11.88
2023-05-03T19:27:17.418Z,9.55
2023-05-03T19:29:44.164Z,9.20
2023-05-03T19:32:11.997Z,8.68
2023-05-03T19:34:38.547Z,8.45
2023-05-03T19:37:05.145Z,9.13
2023-05-03T19:39:35.525Z,8.55
2023-05-03T19:42:02.405Z,5.93
2023-05-03T19:44:33.084Z,10.57
2023-05-03T19:46:59.589Z,9.60
2023-05-03T19:49:26.169Z,9.35
2023-05-03T19:51:56.016Z,11.20
2023-05-03T19:54:23.182Z,14.67
2023-05-03T19:56:50.247Z,12.88
2023-05-03T19:59:16.828Z,14.55
2023-05-03T20:01:45.067Z,10.00
2023-05-03T20:04:12.030Z,11.57
2023-05-03T20:06:38.763Z,13.47
2023-05-03T20:09:05.432Z,11.05
2023-05-03T20:11:31.978Z,13.57
2023-05-03T20:13:58.550Z,9.98
2023-05-03T20:16:27.290Z,11.52
2023-05-03T20:18:54.061Z,12.80
2023-05-03T20:21:20.861Z,12.15
2023-05-03T20:23:49.203Z,9.35
2023-05-03T20:26:16.207Z,10.57
2023-05-03T20:28:43.826Z,13.45
2023-05-03T20:31:11.070Z,16.90
2023-05-03T20:33:37.635Z,15.00
2023-05-03T20:36:04.380Z,14.20
2023-05-03T20:38:30.978Z,15.63
2023-05-03T20:40:57.563Z,11.13
2023-05-03T20:43:24.182Z,14.70
2023-05-03T20:45:51.124Z,12.90
2023-05-03T20:48:17.772Z,13.30
2023-05-03T20:50:44.326Z,16.25
2023-05-03T20:53:10.840Z,12.35
2023-05-03T20:55:38.568Z,16.10
2023-05-03T20:58:05.201Z,10.73
2023-05-03T21:00:31.917Z,10.90
2023-05-03T21:02:58.507Z,15.80
2023-05-03T21:05:25.548Z,9.02
2023-05-03T21:07:52.056Z,13.40
2023-05-03T21:10:18.714Z,14.40
2023-05-03T21:12:45.357Z,13.10
2023-05-03T21:15:12.126Z,11.52
2023-05-03T21:17:38.766Z,13.05
2023-05-03T21:20:06.299Z,10.83
2023-05-03T21:22:32.971Z,9.68
2023-05-03T21:24:59.554Z,11.05
2023-05-03T21:27:26.038Z,10.07
2023-05-03T21:29:52.855Z,8.73
2023-05-03T21:32:19.402Z,10.33
2023-05-03T21:34:45.955Z,12.63
2023-05-03T21:37:12.524Z,15.93
2023-05-03T21:39:39.625Z,11.93
2023-05-03T21:42:06.510Z,13.90
2023-05-03T21:44:33.038Z,10.40
2023-05-03T21:47:00.206Z,13.82
2023-05-03T21:49:27.072Z,14.20
2023-05-03T21:51:54.586Z,11.50
2023-05-03T21:54:21.278Z,10.98
2023-05-03T21:56:48.173Z,15.63
2023-05-03T21:59:15.253Z,14.43
2023-05-03T22:01:41.900Z,16.85
2023-05-03T22:04:08.706Z,12.57
2023-05-03T22:06:35.494Z,12.68
2023-05-03T22:09:02.084Z,13.27
2023-05-03T22:11:28.829Z,12.68
2023-05-03T22:14:06.706Z,21.08
2023-05-03T22:16:34.553Z,21.67
2023-05-03T22:19:01.312Z,18.23
2023-05-03T22:21:27.886Z,15.70
2023-05-03T22:23:54.395Z,11.38
2023-05-03T22:26:20.836Z,13.15
2023-05-03T22:28:47.388Z,11.20
2023-05-03T22:31:13.924Z,10.23
2023-05-03T22:33:40.429Z,8.83
2023-05-03T22:36:07.320Z,12.02
2023-05-03T22:38:33.820Z,9.73
2023-05-03T22:41:00.406Z,14.10
2023-05-03T22:43:26.885Z,10.30
2023-05-03T22:45:53.507Z,12.37
2023-05-03T22:48:20.044Z,11.13
2023-05-03T22:50:46.615Z,8.40
2023-05-03T22:53:13.111Z,9.15
2023-05-03T22:55:39.629Z,9.60
2023-05-03T22:58:06.161Z,10.87
2023-05-03T23:00:33.039Z,10.07
2023-05-03T23:02:59.661Z,9.70
2023-05-03T23:05:26.669Z,11.13
2023-05-03T23:07:53.773Z,11.95
2023-05-03T23:10:20.198Z,11.83
2023-05-03T23:12:46.863Z,11.73
2023-05-03T23:15:13.532Z,11.35
2023-05-03T23:17:40.274Z,10.43
2023-05-03T23:20:07.697Z,7.78
2023-05-03T23:22:34.280Z,11.10
2023-05-03T23:25:00.853Z,7.60
2023-05-03T23:27:27.430Z,10.77
2023-05-03T23:29:54.646Z,11.35
2023-05-03T23:32:21.747Z,8.77
2023-05-03T23:34:48.790Z,13.33
2023-05-03T23:37:15.321Z,10.35
2023-05-03T23:39:45.752Z,9.57
2023-05-03T23:42:12.871Z,9.13
2023-05-03T23:44:53.607Z,8.48
2023-05-03T23:47:21.493Z,8.43
2023-05-03T23:49:48.060Z,9.45
2023-05-03T23:52:16.884Z,10.85
2023-05-03T23:54:43.392Z,9.82
2023-05-03T23:57:10.215Z,7.55
2023-05-03T23:59:36.709Z,6.97
